Terminal Aerodrome Forecast
Issued by NWS Shreveport, LA

Current Version | Previous Version | Text Only | Print | Product List | Glossary On
Versions: 1 2 3 4 5 6 7 8 9 10 11 12 13 14 15 16
000
FTUS44 KSHV 011100 RRA
TAFMLU
TAF
KMLU 011151Z 0112/0212 04008KT P6SM VCSH BKN020 OVC060
     FM011800 05005KT 5SM -RA BR OVC015
      TEMPO 0123/0203 1/2SM -RA OVC007
     FM020300 02006KT 1SM -RA BR OVC005=

USA.gov is the U.S. government's official web portal to all federal, state and local government web resources and services.